sensor_id;sensor_type;location;lat;lon;timestamp;temperature;humidity
38090;DHT22;23904;52.322;10.232;2022-10-26T00:01:12;11.30;99.90
38090;DHT22;23904;52.322;10.232;2022-10-26T00:03:40;11.30;99.90
38090;DHT22;23904;52.322;10.232;2022-10-26T00:06:25;11.30;99.90
38090;DHT22;23904;52.322;10.232;2022-10-26T00:08:54;11.30;99.90
38090;DHT22;23904;52.322;10.232;2022-10-26T00:11:22;11.20;99.90
38090;DHT22;23904;52.322;10.232;2022-10-26T00:13:48;11.20;99.90
38090;DHT22;23904;52.322;10.232;2022-10-26T00:16:25;11.20;99.90
38090;DHT22;23904;52.322;10.232;2022-10-26T00:18:52;11.20;99.90
38090;DHT22;23904;52.322;10.232;2022-10-26T00:21:18;11.10;99.90
38090;DHT22;23904;52.322;10.232;2022-10-26T00:23:44;11.10;99.90
38090;DHT22;23904;52.322;10.232;2022-10-26T00:26:10;11.10;99.90
38090;DHT22;23904;52.322;10.232;2022-10-26T00:28:36;11.10;99.90
38090;DHT22;23904;52.322;10.232;2022-10-26T00:31:07;11.10;99.90
38090;DHT22;23904;52.322;10.232;2022-10-26T00:33:36;11.10;99.90
38090;DHT22;23904;52.322;10.232;2022-10-26T00:36:02;11.00;99.90
38090;DHT22;23904;52.322;10.232;2022-10-26T00:38:28;11.10;99.90
38090;DHT22;23904;52.322;10.232;2022-10-26T00:40:54;11.10;99.90
38090;DHT22;23904;52.322;10.232;2022-10-26T00:45:47;11.10;99.90
38090;DHT22;23904;52.322;10.232;2022-10-26T00:48:20;11.10;99.90
38090;DHT22;23904;52.322;10.232;2022-10-26T00:50:50;11.10;99.90
38090;DHT22;23904;52.322;10.232;2022-10-26T00:53:17;11.10;99.90
38090;DHT22;23904;52.322;10.232;2022-10-26T00:55:46;11.00;99.90
38090;DHT22;23904;52.322;10.232;2022-10-26T00:58:13;11.00;99.90
38090;DHT22;23904;52.322;10.232;2022-10-26T01:00:40;11.00;99.90
38090;DHT22;23904;52.322;10.232;2022-10-26T01:03:08;11.00;99.90
38090;DHT22;23904;52.322;10.232;2022-10-26T01:05:37;10.90;99.90
38090;DHT22;23904;52.322;10.232;2022-10-26T01:08:07;10.90;99.90
38090;DHT22;23904;52.322;10.232;2022-10-26T01:10:34;10.90;99.90
38090;DHT22;23904;52.322;10.232;2022-10-26T01:13:01;10.90;99.90
38090;DHT22;23904;52.322;10.232;2022-10-26T01:24:12;10.90;99.90
38090;DHT22;23904;52.322;10.232;2022-10-26T01:39:00;10.90;99.90
38090;DHT22;23904;52.322;10.232;2022-10-26T01:44:07;10.80;99.90
38090;DHT22;23904;52.322;10.232;2022-10-26T01:46:40;10.90;99.90
38090;DHT22;23904;52.322;10.232;2022-10-26T01:49:11;10.80;99.90
38090;DHT22;23904;52.322;10.232;2022-10-26T01:51:42;10.80;99.90
38090;DHT22;23904;52.322;10.232;2022-10-26T01:54:09;10.80;99.90
38090;DHT22;23904;52.322;10.232;2022-10-26T01:56:38;10.80;99.90
38090;DHT22;23904;52.322;10.232;2022-10-26T02:02:37;10.80;99.90
38090;DHT22;23904;52.322;10.232;2022-10-26T02:11:08;10.90;99.90
38090;DHT22;23904;52.322;10.232;2022-10-26T02:13:53;10.90;99.90
38090;DHT22;23904;52.322;10.232;2022-10-26T02:16:25;11.00;99.90
38090;DHT22;23904;52.322;10.232;2022-10-26T02:22:25;11.10;99.90
38090;DHT22;23904;52.322;10.232;2022-10-26T02:24:55;11.10;99.90
38090;DHT22;23904;52.322;10.232;2022-10-26T02:27:27;11.20;99.90
38090;DHT22;23904;52.322;10.232;2022-10-26T02:29:56;11.20;99.90
38090;DHT22;23904;52.322;10.232;2022-10-26T02:32:26;11.20;99.90
38090;DHT22;23904;52.322;10.232;2022-10-26T02:34:56;11.20;99.90
38090;DHT22;23904;52.322;10.232;2022-10-26T02:37:25;11.20;99.90
38090;DHT22;23904;52.322;10.232;2022-10-26T02:39:53;11.20;99.90
38090;DHT22;23904;52.322;10.232;2022-10-26T02:42:21;11.20;99.90
38090;DHT22;23904;52.322;10.232;2022-10-26T02:44:51;11.20;99.90
38090;DHT22;23904;52.322;10.232;2022-10-26T02:47:19;11.30;99.90
38090;DHT22;23904;52.322;10.232;2022-10-26T02:49:46;11.30;99.90
38090;DHT22;23904;52.322;10.232;2022-10-26T02:55:26;11.40;99.90
38090;DHT22;23904;52.322;10.232;2022-10-26T02:57:58;11.40;99.90
38090;DHT22;23904;52.322;10.232;2022-10-26T03:00:28;11.40;99.90
38090;DHT22;23904;52.322;10.232;2022-10-26T03:02:56;11.40;99.90
38090;DHT22;23904;52.322;10.232;2022-10-26T03:05:28;11.40;99.90
38090;DHT22;23904;52.322;10.232;2022-10-26T03:07:55;11.40;99.90
38090;DHT22;23904;52.322;10.232;2022-10-26T03:10:21;11.40;99.90
38090;DHT22;23904;52.322;10.232;2022-10-26T03:12:47;11.50;99.90
38090;DHT22;23904;52.322;10.232;2022-10-26T03:15:13;11.50;99.90
38090;DHT22;23904;52.322;10.232;2022-10-26T03:17:40;11.50;99.90
38090;DHT22;23904;52.322;10.232;2022-10-26T03:20:06;11.50;99.90
38090;DHT22;23904;52.322;10.232;2022-10-26T03:22:32;11.40;99.90
38090;DHT22;23904;52.322;10.232;2022-10-26T03:24:58;11.50;99.90
38090;DHT22;23904;52.322;10.232;2022-10-26T03:27:23;11.50;99.90
38090;DHT22;23904;52.322;10.232;2022-10-26T03:29:51;11.50;99.90
38090;DHT22;23904;52.322;10.232;2022-10-26T03:32:17;11.50;99.90
38090;DHT22;23904;52.322;10.232;2022-10-26T03:34:43;11.50;99.90
38090;DHT22;23904;52.322;10.232;2022-10-26T03:37:08;11.50;99.90
38090;DHT22;23904;52.322;10.232;2022-10-26T03:39:34;11.40;99.90
38090;DHT22;23904;52.322;10.232;2022-10-26T03:41:59;11.30;99.90
38090;DHT22;23904;52.322;10.232;2022-10-26T03:44:25;11.30;99.90
38090;DHT22;23904;52.322;10.232;2022-10-26T03:46:51;11.40;99.90
38090;DHT22;23904;52.322;10.232;2022-10-26T03:49:16;11.40;99.90
38090;DHT22;23904;52.322;10.232;2022-10-26T03:51:42;11.50;99.90
38090;DHT22;23904;52.322;10.232;2022-10-26T03:54:07;11.50;99.90
38090;DHT22;23904;52.322;10.232;2022-10-26T03:56:33;11.50;99.90
38090;DHT22;23904;52.322;10.232;2022-10-26T03:58:59;11.60;99.90
38090;DHT22;23904;52.322;10.232;2022-10-26T04:01:24;11.60;99.90
38090;DHT22;23904;52.322;10.232;2022-10-26T04:03:50;11.50;99.90
38090;DHT22;23904;52.322;10.232;2022-10-26T04:06:16;11.50;99.90
38090;DHT22;23904;52.322;10.232;2022-10-26T04:08:41;11.50;99.90
38090;DHT22;23904;52.322;10.232;2022-10-26T04:11:07;11.50;99.90
38090;DHT22;23904;52.322;10.232;2022-10-26T04:13:33;11.50;99.90
38090;DHT22;23904;52.322;10.232;2022-10-26T04:15:58;11.60;99.90
38090;DHT22;23904;52.322;10.232;2022-10-26T04:18:24;11.60;99.90
38090;DHT22;23904;52.322;10.232;2022-10-26T04:20:50;11.60;99.90
38090;DHT22;23904;52.322;10.232;2022-10-26T04:23:17;11.50;99.90
38090;DHT22;23904;52.322;10.232;2022-10-26T04:25:44;11.50;99.90
38090;DHT22;23904;52.322;10.232;2022-10-26T04:28:12;11.40;99.90
38090;DHT22;23904;52.322;10.232;2022-10-26T04:30:38;11.40;99.90
38090;DHT22;23904;52.322;10.232;2022-10-26T04:33:05;11.30;99.90
38090;DHT22;23904;52.322;10.232;2022-10-26T04:35:31;11.30;99.90
38090;DHT22;23904;52.322;10.232;2022-10-26T04:38:02;11.30;99.90
38090;DHT22;23904;52.322;10.232;2022-10-26T04:40:30;11.30;99.90
38090;DHT22;23904;52.322;10.232;2022-10-26T04:42:56;11.40;99.90
38090;DHT22;23904;52.322;10.232;2022-10-26T04:45:22;11.40;99.90
38090;DHT22;23904;52.322;10.232;2022-10-26T04:48:05;11.40;99.90
38090;DHT22;23904;52.322;10.232;2022-10-26T04:50:32;11.30;99.90
38090;DHT22;23904;52.322;10.232;2022-10-26T04:52:58;11.20;99.90
38090;DHT22;23904;52.322;10.232;2022-10-26T04:55:24;11.20;99.90
38090;DHT22;23904;52.322;10.232;2022-10-26T04:57:49;11.20;99.90
38090;DHT22;23904;52.322;10.232;2022-10-26T05:00:15;11.10;99.90
38090;DHT22;23904;52.322;10.232;2022-10-26T05:02:41;11.10;99.90
38090;DHT22;23904;52.322;10.232;2022-10-26T05:05:07;11.10;99.90
38090;DHT22;23904;52.322;10.232;2022-10-26T05:07:32;11.00;99.90
38090;DHT22;23904;52.322;10.232;2022-10-26T05:09:58;11.00;99.90
38090;DHT22;23904;52.322;10.232;2022-10-26T05:12:24;10.90;99.90
38090;DHT22;23904;52.322;10.232;2022-10-26T05:14:49;10.90;99.90
38090;DHT22;23904;52.322;10.232;2022-10-26T05:17:15;10.90;99.90
38090;DHT22;23904;52.322;10.232;2022-10-26T05:19:41;10.90;99.90
38090;DHT22;23904;52.322;10.232;2022-10-26T05:22:07;10.90;99.90
38090;DHT22;23904;52.322;10.232;2022-10-26T05:24:32;10.90;99.90
38090;DHT22;23904;52.322;10.232;2022-10-26T05:26:59;10.90;99.90
38090;DHT22;23904;52.322;10.232;2022-10-26T05:29:24;10.80;99.90
38090;DHT22;23904;52.322;10.232;2022-10-26T05:31:50;10.70;99.90
38090;DHT22;23904;52.322;10.232;2022-10-26T05:34:16;10.70;99.90
38090;DHT22;23904;52.322;10.232;2022-10-26T05:36:42;10.70;99.90
38090;DHT22;23904;52.322;10.232;2022-10-26T05:39:07;10.70;99.90
38090;DHT22;23904;52.322;10.232;2022-10-26T05:41:33;10.60;99.90
38090;DHT22;23904;52.322;10.232;2022-10-26T05:43:58;10.60;99.90
38090;DHT22;23904;52.322;10.232;2022-10-26T05:46:24;10.60;99.90
38090;DHT22;23904;52.322;10.232;2022-10-26T05:48:50;10.60;99.90
38090;DHT22;23904;52.322;10.232;2022-10-26T05:51:15;10.70;99.90
38090;DHT22;23904;52.322;10.232;2022-10-26T05:53:41;10.70;99.90
38090;DHT22;23904;52.322;10.232;2022-10-26T05:56:18;10.60;99.90
38090;DHT22;23904;52.322;10.232;2022-10-26T05:58:49;10.60;99.90
38090;DHT22;23904;52.322;10.232;2022-10-26T06:01:33;10.50;99.90
38090;DHT22;23904;52.322;10.232;2022-10-26T06:04:15;10.50;99.90
38090;DHT22;23904;52.322;10.232;2022-10-26T06:06:46;10.50;99.90
38090;DHT22;23904;52.322;10.232;2022-10-26T06:09:18;10.50;99.90
38090;DHT22;23904;52.322;10.232;2022-10-26T06:11:44;10.40;99.90
38090;DHT22;23904;52.322;10.232;2022-10-26T06:14:10;10.40;99.90
38090;DHT22;23904;52.322;10.232;2022-10-26T06:19:39;10.40;99.90
38090;DHT22;23904;52.322;10.232;2022-10-26T06:28:03;10.40;99.90
38090;DHT22;23904;52.322;10.232;2022-10-26T06:30:52;10.40;99.90
38090;DHT22;23904;52.322;10.232;2022-10-26T06:33:19;10.50;99.90
38090;DHT22;23904;52.322;10.232;2022-10-26T06:35:57;10.50;99.90
38090;DHT22;23904;52.322;10.232;2022-10-26T06:38:33;10.60;99.90
38090;DHT22;23904;52.322;10.232;2022-10-26T06:41:00;10.60;99.90
38090;DHT22;23904;52.322;10.232;2022-10-26T06:43:28;10.60;99.90
38090;DHT22;23904;52.322;10.232;2022-10-26T06:46:12;10.60;99.90
38090;DHT22;23904;52.322;10.232;2022-10-26T06:49:30;10.60;99.90
38090;DHT22;23904;52.322;10.232;2022-10-26T06:52:12;10.70;99.90
38090;DHT22;23904;52.322;10.232;2022-10-26T06:54:50;10.70;99.90
38090;DHT22;23904;52.322;10.232;2022-10-26T06:57:19;10.70;99.90
38090;DHT22;23904;52.322;10.232;2022-10-26T06:59:50;10.80;99.90
38090;DHT22;23904;52.322;10.232;2022-10-26T07:02:18;10.80;99.90
38090;DHT22;23904;52.322;10.232;2022-10-26T07:04:44;10.80;99.90
38090;DHT22;23904;52.322;10.232;2022-10-26T07:07:20;10.80;99.90
38090;DHT22;23904;52.322;10.232;2022-10-26T07:09:48;10.80;99.90
38090;DHT22;23904;52.322;10.232;2022-10-26T07:12:14;10.80;99.90
38090;DHT22;23904;52.322;10.232;2022-10-26T07:14:40;10.80;99.90
38090;DHT22;23904;52.322;10.232;2022-10-26T07:17:06;10.80;99.90
38090;DHT22;23904;52.322;10.232;2022-10-26T07:19:31;10.80;99.90
38090;DHT22;23904;52.322;10.232;2022-10-26T07:21:58;10.90;99.90
38090;DHT22;23904;52.322;10.232;2022-10-26T07:24:24;10.90;99.90
38090;DHT22;23904;52.322;10.232;2022-10-26T07:26:53;11.00;99.90
38090;DHT22;23904;52.322;10.232;2022-10-26T07:29:20;11.10;99.90
38090;DHT22;23904;52.322;10.232;2022-10-26T07:31:46;11.10;99.90
38090;DHT22;23904;52.322;10.232;2022-10-26T07:34:12;11.20;99.90
38090;DHT22;23904;52.322;10.232;2022-10-26T07:36:37;11.20;99.90
38090;DHT22;23904;52.322;10.232;2022-10-26T07:39:04;11.20;99.90
38090;DHT22;23904;52.322;10.232;2022-10-26T07:41:30;11.20;99.90
38090;DHT22;23904;52.322;10.232;2022-10-26T07:43:56;11.30;99.90
38090;DHT22;23904;52.322;10.232;2022-10-26T07:46:22;11.30;99.90
38090;DHT22;23904;52.322;10.232;2022-10-26T07:48:48;11.30;99.90
38090;DHT22;23904;52.322;10.232;2022-10-26T07:51:13;11.40;99.90
38090;DHT22;23904;52.322;10.232;2022-10-26T07:53:39;11.50;99.90
38090;DHT22;23904;52.322;10.232;2022-10-26T07:56:06;11.50;99.90
38090;DHT22;23904;52.322;10.232;2022-10-26T07:58:32;11.60;99.90
38090;DHT22;23904;52.322;10.232;2022-10-26T08:01:05;11.80;99.90
38090;DHT22;23904;52.322;10.232;2022-10-26T08:03:32;12.00;99.90
38090;DHT22;23904;52.322;10.232;2022-10-26T08:05:58;12.20;99.90
38090;DHT22;23904;52.322;10.232;2022-10-26T08:08:23;12.40;99.90
38090;DHT22;23904;52.322;10.232;2022-10-26T08:10:49;12.60;99.90
38090;DHT22;23904;52.322;10.232;2022-10-26T08:13:16;12.80;99.90
38090;DHT22;23904;52.322;10.232;2022-10-26T08:15:42;13.00;99.90
38090;DHT22;23904;52.322;10.232;2022-10-26T08:18:07;13.20;99.90
38090;DHT22;23904;52.322;10.232;2022-10-26T08:20:33;13.30;99.90
38090;DHT22;23904;52.322;10.232;2022-10-26T08:22:59;13.40;99.90
38090;DHT22;23904;52.322;10.232;2022-10-26T08:25:25;13.50;99.90
38090;DHT22;23904;52.322;10.232;2022-10-26T08:27:51;13.60;99.90
38090;DHT22;23904;52.322;10.232;2022-10-26T08:30:17;13.70;99.90
38090;DHT22;23904;52.322;10.232;2022-10-26T08:32:43;13.70;99.90
38090;DHT22;23904;52.322;10.232;2022-10-26T08:35:12;13.80;99.90
38090;DHT22;23904;52.322;10.232;2022-10-26T08:37:37;13.90;99.90
38090;DHT22;23904;52.322;10.232;2022-10-26T08:40:03;13.90;99.90
38090;DHT22;23904;52.322;10.232;2022-10-26T08:42:35;13.90;99.90
38090;DHT22;23904;52.322;10.232;2022-10-26T08:45:11;13.90;99.90
38090;DHT22;23904;52.322;10.232;2022-10-26T08:47:48;13.90;99.90
38090;DHT22;23904;52.322;10.232;2022-10-26T08:50:33;13.80;99.90
38090;DHT22;23904;52.322;10.232;2022-10-26T08:53:38;13.80;99.90
38090;DHT22;23904;52.322;10.232;2022-10-26T08:58:47;13.70;99.90
38090;DHT22;23904;52.322;10.232;2022-10-26T09:01:24;13.70;99.90
38090;DHT22;23904;52.322;10.232;2022-10-26T09:03:49;13.70;99.90
38090;DHT22;23904;52.322;10.232;2022-10-26T09:06:25;13.70;99.90
38090;DHT22;23904;52.322;10.232;2022-10-26T09:20:58;13.90;99.90
38090;DHT22;23904;52.322;10.232;2022-10-26T09:26:33;14.10;99.90
38090;DHT22;23904;52.322;10.232;2022-10-26T09:29:06;14.20;99.90
38090;DHT22;23904;52.322;10.232;2022-10-26T09:31:40;14.30;99.90
38090;DHT22;23904;52.322;10.232;2022-10-26T09:34:24;14.40;99.90
38090;DHT22;23904;52.322;10.232;2022-10-26T09:36:54;14.40;99.90
38090;DHT22;23904;52.322;10.232;2022-10-26T09:39:29;14.40;99.90
38090;DHT22;23904;52.322;10.232;2022-10-26T09:42:13;14.40;99.90
38090;DHT22;23904;52.322;10.232;2022-10-26T09:45:10;14.40;99.90
38090;DHT22;23904;52.322;10.232;2022-10-26T09:47:44;14.50;99.90
38090;DHT22;23904;52.322;10.232;2022-10-26T09:50:19;14.60;99.90
38090;DHT22;23904;52.322;10.232;2022-10-26T09:52:47;15.00;99.90
38090;DHT22;23904;52.322;10.232;2022-10-26T09:55:13;15.20;99.90
38090;DHT22;23904;52.322;10.232;2022-10-26T09:57:42;15.40;99.90
38090;DHT22;23904;52.322;10.232;2022-10-26T10:00:18;15.60;99.90
38090;DHT22;23904;52.322;10.232;2022-10-26T10:02:55;16.00;99.90
38090;DHT22;23904;52.322;10.232;2022-10-26T10:05:31;16.60;99.90
38090;DHT22;23904;52.322;10.232;2022-10-26T10:08:20;17.10;99.90
38090;DHT22;23904;52.322;10.232;2022-10-26T10:11:04;17.80;99.90
38090;DHT22;23904;52.322;10.232;2022-10-26T10:13:35;18.50;99.90
38090;DHT22;23904;52.322;10.232;2022-10-26T10:16:09;19.40;99.90
38090;DHT22;23904;52.322;10.232;2022-10-26T10:18:39;19.70;99.90
38090;DHT22;23904;52.322;10.232;2022-10-26T10:21:06;19.90;99.90
38090;DHT22;23904;52.322;10.232;2022-10-26T10:23:49;19.60;99.90
38090;DHT22;23904;52.322;10.232;2022-10-26T10:26:18;19.30;99.90
38090;DHT22;23904;52.322;10.232;2022-10-26T10:28:56;19.10;99.90
38090;DHT22;23904;52.322;10.232;2022-10-26T10:31:30;18.80;99.90
38090;DHT22;23904;52.322;10.232;2022-10-26T10:33:57;18.60;99.90
38090;DHT22;23904;52.322;10.232;2022-10-26T10:36:26;18.50;99.90
38090;DHT22;23904;52.322;10.232;2022-10-26T10:38:55;18.40;99.90
38090;DHT22;23904;52.322;10.232;2022-10-26T10:46:32;18.40;99.90
38090;DHT22;23904;52.322;10.232;2022-10-26T10:49:05;18.10;99.90
38090;DHT22;23904;52.322;10.232;2022-10-26T10:51:41;18.10;99.90
38090;DHT22;23904;52.322;10.232;2022-10-26T10:54:37;17.90;99.90
38090;DHT22;23904;52.322;10.232;2022-10-26T11:00:04;17.60;99.90
38090;DHT22;23904;52.322;10.232;2022-10-26T11:13:58;17.90;99.90
38090;DHT22;23904;52.322;10.232;2022-10-26T11:16:31;18.10;99.90
38090;DHT22;23904;52.322;10.232;2022-10-26T11:21:33;18.00;99.90
38090;DHT22;23904;52.322;10.232;2022-10-26T11:26:46;18.00;99.90
38090;DHT22;23904;52.322;10.232;2022-10-26T11:35:37;17.70;99.90
38090;DHT22;23904;52.322;10.232;2022-10-26T11:41:35;17.70;99.90
38090;DHT22;23904;52.322;10.232;2022-10-26T11:47:13;17.70;99.90
38090;DHT22;23904;52.322;10.232;2022-10-26T11:50:01;17.80;99.90
38090;DHT22;23904;52.322;10.232;2022-10-26T11:52:41;17.90;99.90
38090;DHT22;23904;52.322;10.232;2022-10-26T11:55:10;17.90;99.90
38090;DHT22;23904;52.322;10.232;2022-10-26T11:57:37;18.10;99.90
38090;DHT22;23904;52.322;10.232;2022-10-26T12:00:13;18.10;99.90
38090;DHT22;23904;52.322;10.232;2022-10-26T12:02:43;18.20;99.90
38090;DHT22;23904;52.322;10.232;2022-10-26T12:07:45;19.10;99.90
38090;DHT22;23904;52.322;10.232;2022-10-26T12:10:34;19.70;99.90
38090;DHT22;23904;52.322;10.232;2022-10-26T12:21:09;20.50;99.90
38090;DHT22;23904;52.322;10.232;2022-10-26T12:23:53;20.20;99.90
38090;DHT22;23904;52.322;10.232;2022-10-26T12:28:48;19.80;99.90
38090;DHT22;23904;52.322;10.232;2022-10-26T12:31:49;19.70;99.90
38090;DHT22;23904;52.322;10.232;2022-10-26T12:39:39;19.50;99.90
38090;DHT22;23904;52.322;10.232;2022-10-26T13:01:27;18.80;99.90
38090;DHT22;23904;52.322;10.232;2022-10-26T13:04:14;19.00;99.90
38090;DHT22;23904;52.322;10.232;2022-10-26T13:07:15;19.10;99.90
38090;DHT22;23904;52.322;10.232;2022-10-26T13:09:55;19.20;99.90
38090;DHT22;23904;52.322;10.232;2022-10-26T13:12:25;19.20;99.90
38090;DHT22;23904;52.322;10.232;2022-10-26T13:15:04;19.30;99.90
38090;DHT22;23904;52.322;10.232;2022-10-26T13:17:42;19.40;99.90
38090;DHT22;23904;52.322;10.232;2022-10-26T13:20:18;19.30;99.90
38090;DHT22;23904;52.322;10.232;2022-10-26T13:22:45;19.30;99.90
38090;DHT22;23904;52.322;10.232;2022-10-26T13:25:24;19.20;99.90
38090;DHT22;23904;52.322;10.232;2022-10-26T13:28:05;19.10;99.90
38090;DHT22;23904;52.322;10.232;2022-10-26T13:30:51;18.90;99.90
38090;DHT22;23904;52.322;10.232;2022-10-26T13:33:34;18.90;99.90
38090;DHT22;23904;52.322;10.232;2022-10-26T13:36:13;18.90;99.90
38090;DHT22;23904;52.322;10.232;2022-10-26T13:38:46;18.90;99.90
38090;DHT22;23904;52.322;10.232;2022-10-26T13:41:20;18.90;99.90
38090;DHT22;23904;52.322;10.232;2022-10-26T13:43:51;18.90;99.90
38090;DHT22;23904;52.322;10.232;2022-10-26T13:46:25;18.90;99.90
38090;DHT22;23904;52.322;10.232;2022-10-26T13:48:57;19.00;99.90
38090;DHT22;23904;52.322;10.232;2022-10-26T13:51:39;19.00;99.90
38090;DHT22;23904;52.322;10.232;2022-10-26T13:54:27;19.00;99.90
38090;DHT22;23904;52.322;10.232;2022-10-26T13:59:33;18.80;99.90
38090;DHT22;23904;52.322;10.232;2022-10-26T14:02:17;18.90;99.90
38090;DHT22;23904;52.322;10.232;2022-10-26T14:04:59;18.70;99.90
38090;DHT22;23904;52.322;10.232;2022-10-26T14:10:36;18.70;99.90
38090;DHT22;23904;52.322;10.232;2022-10-26T14:13:08;18.60;99.90
38090;DHT22;23904;52.322;10.232;2022-10-26T14:15:35;18.50;99.90
38090;DHT22;23904;52.322;10.232;2022-10-26T14:18:02;18.60;99.90
38090;DHT22;23904;52.322;10.232;2022-10-26T14:20:29;18.50;99.90
38090;DHT22;23904;52.322;10.232;2022-10-26T14:22:55;18.50;99.90
38090;DHT22;23904;52.322;10.232;2022-10-26T14:25:24;18.40;99.90
38090;DHT22;23904;52.322;10.232;2022-10-26T14:27:51;18.40;99.90
38090;DHT22;23904;52.322;10.232;2022-10-26T14:30:22;18.30;99.90
38090;DHT22;23904;52.322;10.232;2022-10-26T14:32:48;18.30;99.90
38090;DHT22;23904;52.322;10.232;2022-10-26T14:35:15;18.20;99.90
38090;DHT22;23904;52.322;10.232;2022-10-26T14:37:59;18.20;99.90
38090;DHT22;23904;52.322;10.232;2022-10-26T14:40:29;18.00;99.90
38090;DHT22;23904;52.322;10.232;2022-10-26T14:43:00;17.90;99.90
38090;DHT22;23904;52.322;10.232;2022-10-26T14:45:30;17.80;99.90
38090;DHT22;23904;52.322;10.232;2022-10-26T14:47:59;17.70;99.90
38090;DHT22;23904;52.322;10.232;2022-10-26T14:50:26;17.60;99.90
38090;DHT22;23904;52.322;10.232;2022-10-26T14:52:57;17.60;99.90
38090;DHT22;23904;52.322;10.232;2022-10-26T14:55:25;17.50;99.90
38090;DHT22;23904;52.322;10.232;2022-10-26T14:58:05;17.40;99.90
38090;DHT22;23904;52.322;10.232;2022-10-26T15:00:32;17.40;99.90
38090;DHT22;23904;52.322;10.232;2022-10-26T15:02:59;17.30;99.90
38090;DHT22;23904;52.322;10.232;2022-10-26T15:05:33;17.30;99.90
38090;DHT22;23904;52.322;10.232;2022-10-26T15:07:59;17.20;99.90
38090;DHT22;23904;52.322;10.232;2022-10-26T15:13:23;17.10;99.90
38090;DHT22;23904;52.322;10.232;2022-10-26T15:15:54;17.10;99.90
38090;DHT22;23904;52.322;10.232;2022-10-26T15:18:25;17.10;99.90
38090;DHT22;23904;52.322;10.232;2022-10-26T15:20:54;17.00;99.90
38090;DHT22;23904;52.322;10.232;2022-10-26T15:23:21;17.00;99.90
38090;DHT22;23904;52.322;10.232;2022-10-26T15:25:59;16.90;99.90
38090;DHT22;23904;52.322;10.232;2022-10-26T15:28:31;16.80;99.90
38090;DHT22;23904;52.322;10.232;2022-10-26T15:33:33;16.80;99.90
38090;DHT22;23904;52.322;10.232;2022-10-26T15:36:21;16.60;99.90
38090;DHT22;23904;52.322;10.232;2022-10-26T15:38:48;16.60;99.90
38090;DHT22;23904;52.322;10.232;2022-10-26T15:43:59;16.60;99.90
38090;DHT22;23904;52.322;10.232;2022-10-26T15:46:29;16.60;99.90
38090;DHT22;23904;52.322;10.232;2022-10-26T15:48:59;16.50;99.90
38090;DHT22;23904;52.322;10.232;2022-10-26T15:51:27;16.50;99.90
38090;DHT22;23904;52.322;10.232;2022-10-26T15:53:56;16.40;99.90
38090;DHT22;23904;52.322;10.232;2022-10-26T15:56:24;16.30;99.90
38090;DHT22;23904;52.322;10.232;2022-10-26T15:58:51;16.30;99.90
38090;DHT22;23904;52.322;10.232;2022-10-26T16:01:21;16.20;99.90
38090;DHT22;23904;52.322;10.232;2022-10-26T16:03:48;16.20;99.90
38090;DHT22;23904;52.322;10.232;2022-10-26T16:06:17;16.10;99.90
38090;DHT22;23904;52.322;10.232;2022-10-26T16:08:50;16.10;99.90
38090;DHT22;23904;52.322;10.232;2022-10-26T16:11:17;16.00;99.90
38090;DHT22;23904;52.322;10.232;2022-10-26T16:13:42;16.00;99.90
38090;DHT22;23904;52.322;10.232;2022-10-26T16:16:12;15.90;99.90
38090;DHT22;23904;52.322;10.232;2022-10-26T16:18:39;15.80;99.90
38090;DHT22;23904;52.322;10.232;2022-10-26T16:21:05;15.80;99.90
38090;DHT22;23904;52.322;10.232;2022-10-26T16:23:31;15.80;99.90
38090;DHT22;23904;52.322;10.232;2022-10-26T16:25:56;15.80;99.90
38090;DHT22;23904;52.322;10.232;2022-10-26T16:28:22;15.70;99.90
38090;DHT22;23904;52.322;10.232;2022-10-26T16:30:48;15.60;99.90
38090;DHT22;23904;52.322;10.232;2022-10-26T16:33:13;15.60;99.90
38090;DHT22;23904;52.322;10.232;2022-10-26T16:35:39;15.50;99.90
38090;DHT22;23904;52.322;10.232;2022-10-26T16:38:05;15.50;99.90
38090;DHT22;23904;52.322;10.232;2022-10-26T16:40:31;15.50;99.90
38090;DHT22;23904;52.322;10.232;2022-10-26T16:42:56;15.40;99.90
38090;DHT22;23904;52.322;10.232;2022-10-26T16:45:22;15.40;99.90
38090;DHT22;23904;52.322;10.232;2022-10-26T16:47:47;15.30;99.90
38090;DHT22;23904;52.322;10.232;2022-10-26T16:50:13;15.30;99.90
38090;DHT22;23904;52.322;10.232;2022-10-26T16:52:39;15.20;99.90
38090;DHT22;23904;52.322;10.232;2022-10-26T16:55:06;15.20;99.90
38090;DHT22;23904;52.322;10.232;2022-10-26T16:57:34;15.20;99.90
38090;DHT22;23904;52.322;10.232;2022-10-26T17:00:00;15.10;99.90
38090;DHT22;23904;52.322;10.232;2022-10-26T17:02:26;15.10;99.90
38090;DHT22;23904;52.322;10.232;2022-10-26T17:04:52;15.10;99.90
38090;DHT22;23904;52.322;10.232;2022-10-26T17:07:17;15.00;99.90
38090;DHT22;23904;52.322;10.232;2022-10-26T17:09:43;15.00;99.90
38090;DHT22;23904;52.322;10.232;2022-10-26T17:12:09;15.00;99.90
38090;DHT22;23904;52.322;10.232;2022-10-26T17:14:36;14.90;99.90
38090;DHT22;23904;52.322;10.232;2022-10-26T17:17:02;14.90;99.90
38090;DHT22;23904;52.322;10.232;2022-10-26T17:19:28;14.90;99.90
38090;DHT22;23904;52.322;10.232;2022-10-26T17:21:54;14.90;99.90
38090;DHT22;23904;52.322;10.232;2022-10-26T17:24:19;14.90;99.90
38090;DHT22;23904;52.322;10.232;2022-10-26T17:26:45;14.90;99.90
38090;DHT22;23904;52.322;10.232;2022-10-26T17:29:14;14.90;99.90
38090;DHT22;23904;52.322;10.232;2022-10-26T17:31:40;14.90;99.90
38090;DHT22;23904;52.322;10.232;2022-10-26T17:34:06;14.90;99.90
38090;DHT22;23904;52.322;10.232;2022-10-26T17:36:31;14.80;99.90
38090;DHT22;23904;52.322;10.232;2022-10-26T17:38:57;14.80;99.90
38090;DHT22;23904;52.322;10.232;2022-10-26T17:41:25;14.80;99.90
38090;DHT22;23904;52.322;10.232;2022-10-26T17:43:53;14.80;99.90
38090;DHT22;23904;52.322;10.232;2022-10-26T17:46:21;14.80;99.90
38090;DHT22;23904;52.322;10.232;2022-10-26T17:48:58;14.80;99.90
38090;DHT22;23904;52.322;10.232;2022-10-26T17:51:25;14.80;99.90
38090;DHT22;23904;52.322;10.232;2022-10-26T17:53:52;14.80;99.90
38090;DHT22;23904;52.322;10.232;2022-10-26T17:56:27;14.80;99.90
38090;DHT22;23904;52.322;10.232;2022-10-26T17:58:56;14.80;99.90
38090;DHT22;23904;52.322;10.232;2022-10-26T18:01:23;14.70;99.90
38090;DHT22;23904;52.322;10.232;2022-10-26T18:03:50;14.70;99.90
38090;DHT22;23904;52.322;10.232;2022-10-26T18:06:16;14.80;99.90
38090;DHT22;23904;52.322;10.232;2022-10-26T18:08:42;14.70;99.90
38090;DHT22;23904;52.322;10.232;2022-10-26T18:11:20;14.70;99.90